createdAt,value
2018-11-01T00:01:30.280Z,3.40
2018-11-01T00:03:57.835Z,3.53
2018-11-01T00:06:25.603Z,4.40
2018-11-01T00:08:53.336Z,4.60
2018-11-01T00:11:21.018Z,4.17
2018-11-01T00:13:48.671Z,4.10
2018-11-01T00:16:16.354Z,3.77
2018-11-01T00:18:43.966Z,4.00
2018-11-01T00:21:11.604Z,3.97
2018-11-01T00:23:39.625Z,3.50
2018-11-01T00:26:07.504Z,3.43
2018-11-01T00:28:35.226Z,3.93
2018-11-01T00:31:03.004Z,3.70
2018-11-01T00:33:30.676Z,4.10
2018-11-01T00:35:58.360Z,3.30
2018-11-01T00:38:25.973Z,4.40
2018-11-01T00:40:53.559Z,3.60
2018-11-01T00:43:21.217Z,4.37
2018-11-01T00:45:48.976Z,3.83
2018-11-01T00:48:16.772Z,5.10
2018-11-01T00:50:44.454Z,3.27
2018-11-01T00:53:12.065Z,3.63
2018-11-01T00:55:39.708Z,3.83
2018-11-01T00:58:07.529Z,3.50
2018-11-01T01:00:35.139Z,3.10
2018-11-01T01:03:02.821Z,3.70
2018-11-01T01:05:30.440Z,3.00
2018-11-01T01:07:58.043Z,3.50
2018-11-01T01:10:25.705Z,3.63
2018-11-01T01:12:53.315Z,4.30
2018-11-01T01:15:21.024Z,3.33
2018-11-01T01:17:48.684Z,3.47
2018-11-01T01:20:17.259Z,3.73
2018-11-01T01:22:45.682Z,3.63
2018-11-01T01:25:14.631Z,4.10
2018-11-01T01:27:42.304Z,3.50
2018-11-01T01:30:12.482Z,3.80
2018-11-01T01:32:40.203Z,3.80
2018-11-01T01:35:08.790Z,3.73
2018-11-01T01:37:36.551Z,3.30
2018-11-01T01:40:04.299Z,3.33
2018-11-01T01:42:35.932Z,3.10
2018-11-01T01:45:04.176Z,3.00
2018-11-01T01:47:31.952Z,3.30
2018-11-01T01:49:59.800Z,3.00
2018-11-01T01:52:27.631Z,3.23
2018-11-01T01:54:55.258Z,3.20
2018-11-01T01:57:22.898Z,3.73
2018-11-01T01:59:50.495Z,4.03
2018-11-01T02:02:18.107Z,3.73
2018-11-01T02:04:45.780Z,3.57
2018-11-01T02:07:13.518Z,3.87
2018-11-01T02:09:41.178Z,3.23
2018-11-01T02:12:08.811Z,3.20
2018-11-01T02:14:36.496Z,3.30
2018-11-01T02:17:04.261Z,3.90
2018-11-01T02:19:31.885Z,3.50
2018-11-01T02:21:59.511Z,3.37
2018-11-01T02:24:27.190Z,3.27
2018-11-01T02:26:54.820Z,3.50
2018-11-01T02:29:22.482Z,3.33
2018-11-01T02:31:50.117Z,3.70
2018-11-01T02:34:17.791Z,3.50
2018-11-01T02:36:45.395Z,3.70
2018-11-01T02:39:14.460Z,3.30
2018-11-01T02:41:42.159Z,3.43
2018-11-01T02:44:10.377Z,4.30
2018-11-01T02:46:37.993Z,3.83
2018-11-01T02:49:06.427Z,3.60
2018-11-01T02:51:34.011Z,3.30
2018-11-01T02:54:01.629Z,4.17
2018-11-01T02:56:29.290Z,3.53
2018-11-01T02:58:56.895Z,3.70
2018-11-01T03:01:24.449Z,3.80
2018-11-01T03:03:52.115Z,4.07
2018-11-01T03:06:19.727Z,4.40
2018-11-01T03:08:47.389Z,4.00
2018-11-01T03:11:15.222Z,3.83
2018-11-01T03:13:43.075Z,4.13
2018-11-01T03:16:10.674Z,4.23
2018-11-01T03:18:38.330Z,4.10
2018-11-01T03:21:05.965Z,4.47
2018-11-01T03:23:33.831Z,3.80
2018-11-01T03:26:01.483Z,4.07
2018-11-01T03:28:29.122Z,3.20
2018-11-01T03:30:56.739Z,3.60
2018-11-01T03:33:24.383Z,3.93
2018-11-01T03:35:52.014Z,3.53
2018-11-01T03:38:19.639Z,4.20
2018-11-01T03:40:47.310Z,3.80
2018-11-01T03:43:14.923Z,4.10
2018-11-01T03:45:42.540Z,3.73
2018-11-01T03:48:10.171Z,3.80
2018-11-01T03:50:37.802Z,4.30
2018-11-01T03:53:05.568Z,3.87
2018-11-01T03:55:33.228Z,4.23
2018-11-01T03:58:00.902Z,4.00
2018-11-01T04:00:28.558Z,3.53
2018-11-01T04:02:56.192Z,3.80
2018-11-01T04:05:23.801Z,4.10
2018-11-01T04:07:51.556Z,3.93
2018-11-01T04:10:19.175Z,3.77
2018-11-01T04:12:46.851Z,4.03
2018-11-01T04:15:15.174Z,3.90
2018-11-01T04:17:42.807Z,4.23
2018-11-01T04:20:11.971Z,4.10
2018-11-01T04:22:39.709Z,3.70
2018-11-01T04:25:07.351Z,4.30
2018-11-01T04:27:35.024Z,3.30
2018-11-01T04:30:02.627Z,3.70
2018-11-01T04:32:30.227Z,3.63
2018-11-01T04:34:58.112Z,3.70
2018-11-01T04:37:25.764Z,3.53
2018-11-01T04:39:53.411Z,4.53
2018-11-01T04:42:21.085Z,3.70
2018-11-01T04:44:48.771Z,4.30
2018-11-01T04:47:16.400Z,3.77
2018-11-01T04:49:44.024Z,3.60
2018-11-01T04:52:11.610Z,3.00
2018-11-01T04:54:39.263Z,3.40
2018-11-01T04:57:06.911Z,3.53
2018-11-01T04:59:34.937Z,3.57
2018-11-01T05:02:02.656Z,3.53
2018-11-01T05:04:30.284Z,3.10
2018-11-01T05:06:58.113Z,3.70
2018-11-01T05:09:25.775Z,3.83
2018-11-01T05:11:53.546Z,3.60
2018-11-01T05:14:21.202Z,2.83
2018-11-01T05:16:49.442Z,3.73
2018-11-01T05:19:17.160Z,3.10
2018-11-01T05:21:44.932Z,4.10
2018-11-01T05:24:12.702Z,4.20
2018-11-01T05:26:40.461Z,4.20
2018-11-01T05:29:08.843Z,4.13
2018-11-01T05:31:36.402Z,3.80
2018-11-01T05:34:04.207Z,3.80
2018-11-01T05:36:31.826Z,3.80
2018-11-01T05:38:59.530Z,3.63
2018-11-01T05:41:27.398Z,4.00
2018-11-01T05:43:55.060Z,3.97
2018-11-01T05:46:22.738Z,3.67
2018-11-01T05:48:50.484Z,3.90
2018-11-01T05:51:18.135Z,4.03
2018-11-01T05:53:45.783Z,5.90
2018-11-01T05:56:14.638Z,3.97
2018-11-01T05:58:42.690Z,4.23
2018-11-01T06:01:14.650Z,3.80
2018-11-01T06:03:44.264Z,3.60
2018-11-01T06:06:12.225Z,3.83
2018-11-01T06:08:43.023Z,3.87
2018-11-01T06:11:10.854Z,3.90
2018-11-01T06:16:26.660Z,4.07
2018-11-01T06:18:54.325Z,3.83
2018-11-01T06:21:21.979Z,4.10
2018-11-01T06:23:49.572Z,3.80
2018-11-01T06:26:17.528Z,4.97
2018-11-01T06:28:45.225Z,4.50
2018-11-01T06:31:12.912Z,3.70
2018-11-01T06:33:40.537Z,4.00
2018-11-01T06:36:11.207Z,5.07
2018-11-01T06:38:38.865Z,4.30
2018-11-01T06:41:06.588Z,3.60
2018-11-01T06:43:41.750Z,4.00
2018-11-01T06:46:09.483Z,4.70
2018-11-01T06:48:37.123Z,4.40
2018-11-01T06:51:05.336Z,3.53
2018-11-01T06:53:32.975Z,4.10
2018-11-01T06:56:00.632Z,5.27
2018-11-01T06:58:28.280Z,4.20
2018-11-01T07:00:55.801Z,4.40
2018-11-01T07:03:23.344Z,4.43
2018-11-01T07:05:51.076Z,4.97
2018-11-01T07:08:18.659Z,3.80
2018-11-01T07:10:46.198Z,4.60
2018-11-01T07:13:13.808Z,3.73
2018-11-01T07:15:41.337Z,4.03
2018-11-01T07:18:09.019Z,4.33
2018-11-01T07:20:36.670Z,5.27
2018-11-01T07:23:04.351Z,4.50
2018-11-01T07:25:32.402Z,4.00
2018-11-01T07:27:59.970Z,4.00
2018-11-01T07:30:27.685Z,4.13
2018-11-01T07:32:55.267Z,4.00
2018-11-01T07:35:22.895Z,4.27
2018-11-01T07:37:50.495Z,4.23
2018-11-01T07:40:18.527Z,4.30
2018-11-01T07:42:46.126Z,3.90
2018-11-01T07:45:14.268Z,4.67
2018-11-01T07:47:42.956Z,4.23
2018-11-01T07:50:11.438Z,3.93
2018-11-01T07:52:39.565Z,4.90
2018-11-01T07:55:07.689Z,5.30
2018-11-01T07:57:35.255Z,5.40
2018-11-01T08:00:02.794Z,5.00
2018-11-01T08:02:30.370Z,5.70
2018-11-01T08:04:57.973Z,5.40
2018-11-01T08:07:25.660Z,5.07
2018-11-01T08:09:53.255Z,4.50
2018-11-01T08:12:20.818Z,5.50
2018-11-01T08:14:48.428Z,5.20
2018-11-01T08:17:16.104Z,5.40
2018-11-01T08:19:43.795Z,4.83
2018-11-01T08:22:11.378Z,4.80
2018-11-01T08:24:38.970Z,5.03
2018-11-01T08:27:06.635Z,5.40
2018-11-01T08:29:34.241Z,4.90
2018-11-01T08:32:01.938Z,5.03
2018-11-01T08:34:29.672Z,5.60
2018-11-01T08:36:57.294Z,4.73
2018-11-01T08:39:24.921Z,4.80
2018-11-01T08:41:52.560Z,5.60
2018-11-01T08:44:20.098Z,6.20
2018-11-01T08:46:47.647Z,4.60
2018-11-01T08:49:15.366Z,5.23
2018-11-01T08:51:42.884Z,5.50
2018-11-01T08:54:10.487Z,6.13
2018-11-01T08:56:38.088Z,4.73
2018-11-01T08:59:05.927Z,5.60
2018-11-01T09:01:34.050Z,5.20
2018-11-01T09:04:01.805Z,4.63
2018-11-01T09:06:29.360Z,5.50
2018-11-01T09:08:56.943Z,6.57
2018-11-01T09:11:24.547Z,5.37
2018-11-01T09:13:52.134Z,7.40
2018-11-01T09:16:19.739Z,5.40
2018-11-01T09:18:47.271Z,5.70
2018-11-01T09:21:14.854Z,5.43
2018-11-01T09:23:42.469Z,6.10
2018-11-01T09:26:10.070Z,6.30
2018-11-01T09:28:37.626Z,5.73
2018-11-01T09:31:05.226Z,5.30
2018-11-01T09:33:32.833Z,5.40
2018-11-01T09:36:00.384Z,5.40
2018-11-01T09:38:27.876Z,4.70
2018-11-01T09:40:55.419Z,5.03
2018-11-01T09:43:22.985Z,5.70
2018-11-01T09:45:50.555Z,6.07
2018-11-01T09:48:18.167Z,5.87
2018-11-01T09:50:45.798Z,6.50
2018-11-01T09:53:13.403Z,6.47
2018-11-01T09:55:41.052Z,5.87
2018-11-01T09:58:08.579Z,6.53
2018-11-01T10:00:36.173Z,7.07
2018-11-01T10:03:04.015Z,7.27
2018-11-01T10:05:31.587Z,6.80
2018-11-01T10:07:59.294Z,6.03
2018-11-01T10:10:27.018Z,6.37
2018-11-01T10:12:54.515Z,6.23
2018-11-01T10:15:22.327Z,6.70
2018-11-01T10:17:50.036Z,6.47
2018-11-01T10:20:17.355Z,6.13
2018-11-01T10:22:45.399Z,6.07
2018-11-01T10:25:14.386Z,6.93
2018-11-01T10:27:42.288Z,7.10
2018-11-01T10:30:11.078Z,5.53
2018-11-01T10:32:38.634Z,6.20
2018-11-01T10:35:06.291Z,6.77
2018-11-01T10:37:33.851Z,6.10
2018-11-01T10:40:01.572Z,5.80
2018-11-01T10:42:30.094Z,6.60
2018-11-01T10:44:57.656Z,5.60
2018-11-01T10:47:25.255Z,5.43
2018-11-01T10:49:52.883Z,6.33
2018-11-01T10:52:20.453Z,6.37
2018-11-01T10:54:48.114Z,6.40
2018-11-01T10:57:15.664Z,6.63
2018-11-01T10:59:43.207Z,6.47
2018-11-01T11:02:19.895Z,6.27
2018-11-01T11:04:47.482Z,6.20
2018-11-01T11:07:15.157Z,6.10
2018-11-01T11:09:42.779Z,6.80
2018-11-01T11:12:10.273Z,6.60
2018-11-01T11:14:38.131Z,6.00
2018-11-01T11:17:05.750Z,6.07
2018-11-01T11:19:33.334Z,6.63
2018-11-01T11:22:00.899Z,7.10
2018-11-01T11:24:28.430Z,6.70
2018-11-01T11:26:55.927Z,6.33
2018-11-01T11:29:23.453Z,7.30
2018-11-01T11:31:51.122Z,7.40
2018-11-01T11:34:18.687Z,6.30
2018-11-01T11:36:46.261Z,7.00
2018-11-01T11:39:13.926Z,6.97
2018-11-01T11:41:42.048Z,6.10
2018-11-01T11:44:10.093Z,6.57
2018-11-01T11:46:37.755Z,6.30
2018-11-01T11:49:05.786Z,7.60
2018-11-01T11:51:33.388Z,6.90
2018-11-01T11:54:00.954Z,5.90
2018-11-01T11:56:28.540Z,6.97
2018-11-01T11:58:56.068Z,6.67
2018-11-01T12:01:24.253Z,6.30
2018-11-01T12:03:51.951Z,6.70
2018-11-01T12:06:19.676Z,6.10
2018-11-01T12:08:47.156Z,6.30
2018-11-01T12:11:14.755Z,7.60
2018-11-01T12:13:42.425Z,7.40
2018-11-01T12:16:10.144Z,6.80
2018-11-01T12:18:37.762Z,6.20
2018-11-01T12:21:05.343Z,7.03
2018-11-01T12:23:33.022Z,6.77
2018-11-01T12:26:00.560Z,6.50
2018-11-01T12:28:28.274Z,7.33
2018-11-01T12:30:55.846Z,8.30
2018-11-01T12:33:23.417Z,7.20
2018-11-01T12:35:51.077Z,7.50
2018-11-01T12:38:18.612Z,8.17
2018-11-01T12:40:46.244Z,7.10
2018-11-01T12:43:13.797Z,8.73
2018-11-01T12:45:41.323Z,7.00
2018-11-01T12:48:08.894Z,8.50
2018-11-01T12:50:36.472Z,8.43
2018-11-01T12:53:04.069Z,8.07
2018-11-01T12:55:31.694Z,7.40
2018-11-01T12:57:59.289Z,8.10
2018-11-01T13:00:26.847Z,7.50
2018-11-01T13:02:54.483Z,7.90
2018-11-01T13:05:22.019Z,7.90
2018-11-01T13:07:49.584Z,8.00
2018-11-01T13:10:17.164Z,8.57
2018-11-01T13:12:44.733Z,11.70
2018-11-01T13:15:12.875Z,11.90
2018-11-01T13:17:40.454Z,12.23
2018-11-01T13:20:08.289Z,12.47
2018-11-01T13:22:35.901Z,12.10
2018-11-01T13:25:03.507Z,12.40
2018-11-01T13:27:31.020Z,13.00
2018-11-01T13:29:58.599Z,12.73
2018-11-01T13:32:26.160Z,13.37
2018-11-01T13:34:53.881Z,12.83
2018-11-01T13:37:21.421Z,13.73
2018-11-01T13:39:49.166Z,13.30
2018-11-01T13:42:16.740Z,13.67
2018-11-01T13:44:44.355Z,12.70
2018-11-01T13:47:12.097Z,14.23
2018-11-01T13:49:39.635Z,14.93
2018-11-01T13:52:07.261Z,14.60
2018-11-01T13:54:34.861Z,14.63
2018-11-01T13:57:02.423Z,15.17
2018-11-01T13:59:30.023Z,14.13
2018-11-01T14:01:57.608Z,15.70
2018-11-01T14:04:25.306Z,13.60
2018-11-01T14:06:52.861Z,14.23
2018-11-01T14:09:20.414Z,16.70
2018-11-01T14:11:48.237Z,15.90
2018-11-01T14:14:16.230Z,16.33
2018-11-01T14:16:45.232Z,15.37
2018-11-01T14:19:13.588Z,16.90
2018-11-01T14:21:41.157Z,15.97
2018-11-01T14:24:08.874Z,18.77
2018-11-01T14:26:36.541Z,19.10
2018-11-01T14:29:04.230Z,17.70
2018-11-01T14:31:40.071Z,18.50
2018-11-01T14:34:11.155Z,17.20
2018-11-01T14:36:40.287Z,18.77
2018-11-01T14:39:08.783Z,17.43
2018-11-01T14:41:36.361Z,17.30
2018-11-01T14:44:04.017Z,19.43
2018-11-01T14:46:31.775Z,22.00
2018-11-01T14:48:59.336Z,21.00
2018-11-01T14:51:27.084Z,19.80
2018-11-01T14:53:56.126Z,19.67
2018-11-01T14:56:25.338Z,19.70
2018-11-01T14:58:53.266Z,21.47
2018-11-01T15:01:22.943Z,19.17
2018-11-01T15:03:51.402Z,19.50
2018-11-01T15:06:20.959Z,19.17
2018-11-01T15:08:48.633Z,20.27
2018-11-01T15:11:18.348Z,19.73
2018-11-01T15:13:47.531Z,16.70
2018-11-01T15:16:19.591Z,20.27
2018-11-01T15:18:47.757Z,19.67
2018-11-01T15:21:15.382Z,19.60
2018-11-01T15:23:45.219Z,20.10
2018-11-01T15:26:14.447Z,19.80
2018-11-01T15:28:42.092Z,20.30
2018-11-01T15:31:09.821Z,19.97
2018-11-01T15:33:38.686Z,22.27
2018-11-01T15:36:09.593Z,19.20
2018-11-01T15:38:37.407Z,20.00
2018-11-01T15:41:11.266Z,19.50
2018-11-01T15:43:39.095Z,19.83
2018-11-01T15:46:07.503Z,21.43
2018-11-01T15:48:35.177Z,22.60
2018-11-01T15:51:02.860Z,20.07
2018-11-01T15:53:30.519Z,18.80
2018-11-01T15:55:58.904Z,19.07
2018-11-01T15:58:26.870Z,16.67
2018-11-01T16:00:55.881Z,20.03
2018-11-01T16:03:23.674Z,20.00
2018-11-01T16:05:51.313Z,20.57
2018-11-01T16:08:18.995Z,19.57
2018-11-01T16:10:46.666Z,18.70
2018-11-01T16:13:14.411Z,19.57
2018-11-01T16:15:42.048Z,17.33
2018-11-01T16:18:09.639Z,19.20
2018-11-01T16:20:37.271Z,20.77
2018-11-01T16:23:05.118Z,19.77
2018-11-01T16:25:32.722Z,18.90
2018-11-01T16:28:00.338Z,18.87
2018-11-01T16:30:27.939Z,19.60
2018-11-01T16:32:55.596Z,19.70
2018-11-01T16:35:23.234Z,19.57
2018-11-01T16:37:51.116Z,18.97
2018-11-01T16:40:18.758Z,19.53
2018-11-01T16:42:46.418Z,20.90
2018-11-01T16:45:15.227Z,19.83
2018-11-01T16:47:42.901Z,19.07
2018-11-01T16:50:10.929Z,20.97
2018-11-01T16:52:39.358Z,19.60
2018-11-01T16:55:07.219Z,21.37
2018-11-01T16:57:34.855Z,20.13
2018-11-01T17:00:02.480Z,21.17
2018-11-01T17:02:30.098Z,22.93
2018-11-01T17:04:57.731Z,20.87
2018-11-01T17:07:25.365Z,20.80
2018-11-01T17:09:53.162Z,20.47
2018-11-01T17:12:20.786Z,18.70
2018-11-01T17:14:48.402Z,20.57
2018-11-01T17:17:16.035Z,20.97
2018-11-01T17:19:43.693Z,19.77
2018-11-01T17:22:11.302Z,19.90
2018-11-01T17:24:38.958Z,19.83
2018-11-01T17:27:06.685Z,20.50
2018-11-01T17:29:34.374Z,19.90
2018-11-01T17:32:02.041Z,21.00
2018-11-01T17:34:29.703Z,22.57
2018-11-01T17:36:57.333Z,23.10
2018-11-01T17:39:24.911Z,22.27
2018-11-01T17:41:52.676Z,21.97
2018-11-01T17:44:20.275Z,23.10
2018-11-01T17:46:47.899Z,23.73
2018-11-01T17:49:15.753Z,21.77
2018-11-01T17:51:45.219Z,22.30
2018-11-01T17:54:15.607Z,21.60
2018-11-01T17:56:44.468Z,24.07
2018-11-01T17:59:12.141Z,23.70
2018-11-01T18:01:39.907Z,24.50
2018-11-01T18:04:07.852Z,23.30
2018-11-01T18:06:35.642Z,25.20
2018-11-01T18:09:05.561Z,24.30
2018-11-01T18:11:33.221Z,24.43
2018-11-01T18:14:00.822Z,25.63
2018-11-01T18:16:28.517Z,24.83
2018-11-01T18:18:56.335Z,24.07
2018-11-01T18:21:23.953Z,25.07
2018-11-01T18:23:51.515Z,25.30
2018-11-01T18:26:19.248Z,22.20
2018-11-01T18:28:47.056Z,24.10
2018-11-01T18:31:14.870Z,23.90
2018-11-01T18:33:42.968Z,26.27
2018-11-01T18:36:10.992Z,24.60
2018-11-01T18:38:39.627Z,23.23
2018-11-01T18:41:07.325Z,24.57
2018-11-01T18:43:34.997Z,22.20
2018-11-01T18:46:03.073Z,22.63
2018-11-01T18:48:30.871Z,20.90
2018-11-01T18:50:58.608Z,21.80
2018-11-01T18:53:26.460Z,21.87
2018-11-01T18:55:56.621Z,22.07
2018-11-01T18:58:24.237Z,23.93
2018-11-01T19:00:53.234Z,22.60
2018-11-01T19:03:26.359Z,24.90
2018-11-01T19:05:54.026Z,23.47
2018-11-01T19:08:21.807Z,21.50
2018-11-01T19:10:49.574Z,22.30
2018-11-01T19:13:17.177Z,22.80
2018-11-01T19:15:44.874Z,23.77
2018-11-01T19:18:12.590Z,22.37
2018-11-01T19:20:40.237Z,23.07
2018-11-01T19:23:07.958Z,23.03
2018-11-01T19:25:37.880Z,23.30
2018-11-01T19:28:06.886Z,24.80
2018-11-01T19:30:34.442Z,23.73
2018-11-01T19:33:02.199Z,22.53
2018-11-01T19:35:30.053Z,23.10
2018-11-01T19:37:57.800Z,20.17
2018-11-01T19:40:29.247Z,22.17
2018-11-01T19:42:58.826Z,21.10
2018-11-01T19:45:30.627Z,23.87
2018-11-01T19:47:58.452Z,21.90
2018-11-01T19:50:26.170Z,22.43
2018-11-01T19:52:53.900Z,22.03
2018-11-01T19:55:21.600Z,21.90
2018-11-01T19:57:51.608Z,22.80
2018-11-01T20:00:19.358Z,22.27
2018-11-01T20:02:47.971Z,20.47
2018-11-01T20:05:15.551Z,21.00
2018-11-01T20:07:43.247Z,20.87
2018-11-01T20:10:12.321Z,19.87
2018-11-01T20:12:41.423Z,20.30
2018-11-01T20:15:09.311Z,22.70
2018-11-01T20:17:38.527Z,22.10
2018-11-01T20:20:08.094Z,22.40
2018-11-01T20:22:35.827Z,21.00
2018-11-01T20:25:03.669Z,20.80
2018-11-01T20:27:31.425Z,20.73
2018-11-01T20:29:59.295Z,20.37
2018-11-01T20:32:26.899Z,22.67
2018-11-01T20:34:54.682Z,20.60
2018-11-01T20:37:22.343Z,22.43
2018-11-01T20:39:50.075Z,20.87
2018-11-01T20:42:17.699Z,18.00
2018-11-01T20:44:46.481Z,20.53
2018-11-01T20:47:14.348Z,18.37
2018-11-01T20:49:41.979Z,21.30
2018-11-01T20:52:09.827Z,24.52
2018-11-01T20:54:38.218Z,21.23
2018-11-01T20:57:05.938Z,19.10
2018-11-01T20:59:33.721Z,18.97
2018-11-01T21:02:01.658Z,19.60
2018-11-01T21:04:29.398Z,20.50
2018-11-01T21:06:57.175Z,19.83
2018-11-01T21:09:24.999Z,18.00
2018-11-01T21:11:52.966Z,18.67
2018-11-01T21:14:20.594Z,18.37
2018-11-01T21:16:48.549Z,19.70
2018-11-01T21:19:16.451Z,19.60
2018-11-01T21:21:44.123Z,18.70
2018-11-01T21:24:11.875Z,19.57
2018-11-01T21:26:39.681Z,19.40
2018-11-01T21:29:07.357Z,20.30
2018-11-01T21:31:34.966Z,19.30
2018-11-01T21:34:02.695Z,19.10
2018-11-01T21:36:30.406Z,16.20
2018-11-01T21:38:57.998Z,17.60
2018-11-01T21:41:25.648Z,18.93
2018-11-01T21:43:53.265Z,16.90
2018-11-01T21:46:20.855Z,17.80
2018-11-01T21:48:48.462Z,16.40
2018-11-01T21:51:16.026Z,15.70
2018-11-01T21:53:43.739Z,16.37
2018-11-01T21:56:11.473Z,18.53
2018-11-01T21:58:39.138Z,18.47
2018-11-01T22:01:06.791Z,16.27
2018-11-01T22:03:34.938Z,16.57
2018-11-01T22:06:02.560Z,17.47
2018-11-01T22:08:30.201Z,16.87
2018-11-01T22:10:57.793Z,16.93
2018-11-01T22:13:25.390Z,17.67
2018-11-01T22:15:52.936Z,16.50
2018-11-01T22:18:20.546Z,17.80
2018-11-01T22:20:48.144Z,17.80
2018-11-01T22:23:15.733Z,17.57
2018-11-01T22:25:43.365Z,16.53
2018-11-01T22:28:11.119Z,15.27
2018-11-01T22:30:38.626Z,16.90
2018-11-01T22:33:06.189Z,17.97
2018-11-01T22:35:33.777Z,16.10
2018-11-01T22:38:01.413Z,15.77
2018-11-01T22:40:29.030Z,16.37
2018-11-01T22:42:56.594Z,14.83
2018-11-01T22:45:24.176Z,16.70
2018-11-01T22:47:51.742Z,15.50
2018-11-01T22:50:19.336Z,16.23
2018-11-01T22:52:46.922Z,15.70
2018-11-01T22:55:14.485Z,10.67
2018-11-01T22:57:42.297Z,16.07
2018-11-01T23:00:11.375Z,15.63
2018-11-01T23:02:39.005Z,15.20
2018-11-01T23:05:06.987Z,15.63
2018-11-01T23:07:34.556Z,17.30
2018-11-01T23:10:02.122Z,17.73
2018-11-01T23:12:29.736Z,17.20
2018-11-01T23:14:57.318Z,16.53
2018-11-01T23:17:25.003Z,16.00
2018-11-01T23:19:52.634Z,16.80
2018-11-01T23:22:20.234Z,17.60
2018-11-01T23:24:47.859Z,16.30
2018-11-01T23:27:15.395Z,17.67
2018-11-01T23:29:43.024Z,17.20
2018-11-01T23:32:10.581Z,16.80
2018-11-01T23:34:38.227Z,17.53
2018-11-01T23:37:11.634Z,16.57
2018-11-01T23:39:44.581Z,17.33
2018-11-01T23:42:17.590Z,18.30
2018-11-01T23:44:50.463Z,18.60
2018-11-01T23:47:23.492Z,19.87
2018-11-01T23:49:56.238Z,20.10
2018-11-01T23:52:24.037Z,17.53
2018-11-01T23:54:52.074Z,18.50
2018-11-01T23:57:19.608Z,19.17
2018-11-01T23:59:47.394Z,19.97
